Time;durP1;ratioP1;P1;durP2;ratioP2;P2;SDS_P1;SDS_P2;PMS_P1;PMS_P2;Temp;Humidity;BMP_temperature;BMP_pressure;BME280_temperature;BME280_humidity;BME280_pressure;Samples;Min_cycle;Max_cycle;Signal;HPM_P1;HPM_P2
2024/02/18 00:01:02;;;;;;;;;;;;;;;;;;4945320;28;90634;-87
2024/02/18 00:03:27;;;;;;;;;;;;;;;;;;4945103;28;92689;-85
2024/02/18 00:05:52;;;;;;;;;;;;;;;;;;4944821;28;89647;-86
2024/02/18 00:08:18;;;;;;;;;;;;;;;;;;4937925;28;90289;-84
2024/02/18 00:10:43;;;;;;;;;;;;;;;;;;4950730;28;92120;-87
2024/02/18 00:13:08;;;;;;;;;;;;;;;;;;4945038;28;91846;-89
2024/02/18 00:15:34;;;;;;;;;;;;;;;;;;4951323;28;90684;-82
2024/02/18 00:18:00;;;;;;;;;;;;;;;;;;4949402;28;90799;-90
2024/02/18 00:20:25;;;;;;;;;;;;;;;;;;4950606;28;89146;-83
2024/02/18 00:22:50;;;;;;;;;;;;;;;;;;4951352;28;90075;-87
2024/02/18 00:25:15;;;;;;;;;;;;;;;;;;4960235;28;89485;-86
2024/02/18 00:27:41;;;;;;;;;;;;;;;;;;4957123;28;89698;-86
2024/02/18 00:30:06;;;;;;;;;;;;;;;;;;4951614;28;89544;-84
2024/02/18 00:32:31;;;;;;;;;;;;;;;;;;4950830;28;89685;-85
2024/02/18 00:34:57;;;;;;;;;;;;;;;;;;4950920;28;89604;-84
2024/02/18 00:37:24;;;;;;;;;;;;;;;;;;4954266;28;90051;-88
2024/02/18 00:39:50;;;;;;;;;;;;;;;;;;4950616;28;89201;-84
2024/02/18 00:42:15;;;;;;;;;;;;;;;;;;4948896;28;92411;-86
2024/02/18 00:44:40;;;;;;;;;;;;;;;;;;4950343;28;89525;-86
2024/02/18 00:47:06;;;;;;;;;;;;;;;;;;4949987;28;89159;-87
2024/02/18 00:49:32;;;;;;;;;;;;;;;;;;4950302;28;89490;-88
2024/02/18 00:51:57;;;;;;;;;;;;;;;;;;4948716;28;90188;-88
2024/02/18 00:54:23;;;;;;;;;;;;;;;;;;4950423;28;89485;-84
2024/02/18 00:56:50;;;;;;;;;;;;;;;;;;4950299;28;89496;-86
2024/02/18 00:59:15;;;;;;;;;;;;;;;;;;4956122;28;89231;-84
2024/02/18 01:01:41;;;;;;;;;;;;;;;;;;4953201;28;89501;-89
2024/02/18 01:04:06;;;;;;;;;;;;;;;;;;4952281;28;89381;-84
2024/02/18 01:06:31;;;;;;;;;;;;;;;;;;4952550;28;88973;-88
2024/02/18 01:08:56;;;;;;;;;;;;;;;;;;4952902;28;89080;-84
2024/02/18 01:11:22;;;;;;;;;;;;;;;;;;4952555;28;90018;-88
2024/02/18 01:13:47;;;;;;;;;;;;;;;;;;4952953;28;89545;-83
2024/02/18 01:16:12;;;;;;;;;;;;;;;;;;4952936;28;89512;-88
2024/02/18 01:18:41;;;;;;;;;;;;;;;;;;4953403;28;90126;-84
2024/02/18 01:21:06;;;;;;;;;;;;;;;;;;4956395;28;89443;-85
2024/02/18 01:23:31;;;;;;;;;;;;;;;;;;4952280;28;89474;-85
2024/02/18 01:25:57;;;;;;;;;;;;;;;;;;4952838;28;89324;-87
2024/02/18 01:28:24;;;;;;;;;;;;;;;;;;4952760;28;89528;-86
2024/02/18 01:30:49;;;;;;;;;;;;;;;;;;4953387;28;89211;-86
2024/02/18 01:33:14;;;;;;;;;;;;;;;;;;4953145;28;89017;-84
2024/02/18 01:35:40;;;;;;;;;;;;;;;;;;4952930;28;89660;-84
2024/02/18 01:38:05;;;;;;;;;;;;;;;;;;4952817;28;89230;-86
2024/02/18 01:40:30;;;;;;;;;;;;;;;;;;4954028;28;89007;-86
2024/02/18 01:42:55;;;;;;;;;;;;;;;;;;4953693;28;92639;-83
2024/02/18 01:45:20;;;;;;;;;;;;;;;;;;4952088;28;89490;-87
2024/02/18 01:47:46;;;;;;;;;;;;;;;;;;4951559;28;89521;-89
2024/02/18 01:50:11;;;;;;;;;;;;;;;;;;4952448;28;89064;-83
2024/02/18 01:52:39;;;;;;;;;;;;;;;;;;4952233;28;89488;-87
2024/02/18 01:55:05;;;;;;;;;;;;;;;;;;4952770;28;89509;-84
2024/02/18 01:57:31;;;;;;;;;;;;;;;;;;4952519;28;89167;-88
2024/02/18 01:59:57;;;;;;;;;;;;;;;;;;4952789;28;89449;-86
2024/02/18 02:02:23;;;;;;;;;;;;;;;;;;4961102;28;92384;-84
2024/02/18 02:04:48;;;;;;;;;;;;;;;;;;4952384;28;89480;-79
2024/02/18 02:07:14;;;;;;;;;;;;;;;;;;4952218;28;89992;-87
2024/02/18 02:09:39;;;;;;;;;;;;;;;;;;4952225;28;89271;-82
2024/02/18 02:12:05;;;;;;;;;;;;;;;;;;4951097;28;90496;-87
2024/02/18 02:14:30;;;;;;;;;;;;;;;;;;4952323;28;89457;-86
2024/02/18 02:16:56;;;;;;;;;;;;;;;;;;4952350;28;88936;-86
2024/02/18 02:19:22;;;;;;;;;;;;;;;;;;4951494;28;89451;-83
2024/02/18 02:21:47;;;;;;;;;;;;;;;;;;4952392;28;91500;-88
2024/02/18 02:24:12;;;;;;;;;;;;;;;;;;4955674;28;89247;-87
2024/02/18 02:26:41;;;;;;;;;;;;;;;;;;4952752;28;88998;-86
2024/02/18 02:29:11;;;;;;;;;;;;;;;;;;4952133;28;89243;-86
2024/02/18 02:31:36;;;;;;;;;;;;;;;;;;4953182;28;89142;-86
2024/02/18 02:34:02;;;;;;;;;;;;;;;;;;4959143;28;89622;-84
2024/02/18 02:36:27;;;;;;;;;;;;;;;;;;4960189;28;89148;-85
2024/02/18 02:38:52;;;;;;;;;;;;;;;;;;4952486;28;89169;-85
2024/02/18 02:41:18;;;;;;;;;;;;;;;;;;4952397;28;89618;-87
2024/02/18 02:43:43;;;;;;;;;;;;;;;;;;4951970;28;91436;-89
2024/02/18 02:46:08;;;;;;;;;;;;;;;;;;4954343;28;91791;-88
2024/02/18 02:48:34;;;;;;;;;;;;;;;;;;4951234;28;91649;-85
2024/02/18 02:50:59;;;;;;;;;;;;;;;;;;4952429;28;89102;-88
2024/02/18 02:53:24;;;;;;;;;;;;;;;;;;4951039;28;92751;-85
2024/02/18 02:55:50;;;;;;;;;;;;;;;;;;4951158;28;91624;-90
2024/02/18 02:58:15;;;;;;;;;;;;;;;;;;4966702;28;89733;-86
2024/02/18 03:00:40;;;;;;;;;;;;;;;;;;4950691;28;90872;-89
2024/02/18 03:03:05;;;;;;;;;;;;;;;;;;4952047;28;89296;-85
2024/02/18 03:05:30;;;;;;;;;;;;;;;;;;4950215;28;90468;-85
2024/02/18 03:07:56;;;;;;;;;;;;;;;;;;4954974;28;89539;-86
2024/02/18 03:10:21;;;;;;;;;;;;;;;;;;4952017;28;88985;-85
2024/02/18 03:12:46;;;;;;;;;;;;;;;;;;4949442;28;92125;-83
2024/02/18 03:15:11;;;;;;;;;;;;;;;;;;4949691;28;91840;-86
2024/02/18 03:17:37;;;;;;;;;;;;;;;;;;4950606;28;89752;-83
2024/02/18 03:20:05;;;;;;;;;;;;;;;;;;4950979;28;89679;-83
2024/02/18 03:22:30;;;;;;;;;;;;;;;;;;4950578;28;89721;-83
2024/02/18 03:24:55;;;;;;;;;;;;;;;;;;4951351;28;89283;-88
2024/02/18 03:27:20;;;;;;;;;;;;;;;;;;4950718;28;89613;-87
2024/02/18 03:29:46;;;;;;;;;;;;;;;;;;4952771;28;89301;-83
2024/02/18 03:32:12;;;;;;;;;;;;;;;;;;4950542;28;89441;-87
2024/02/18 03:34:37;;;;;;;;;;;;;;;;;;4949784;28;93845;-84
2024/02/18 03:37:03;;;;;;;;;;;;;;;;;;4950084;28;89269;-85
2024/02/18 03:39:28;;;;;;;;;;;;;;;;;;4951148;28;89962;-86
2024/02/18 03:41:53;;;;;;;;;;;;;;;;;;4949853;28;90738;-83
2024/02/18 03:44:18;;;;;;;;;;;;;;;;;;4950940;28;89015;-88
2024/02/18 03:46:44;;;;;;;;;;;;;;;;;;4951088;28;92282;-87
2024/02/18 03:49:09;;;;;;;;;;;;;;;;;;4951747;28;89378;-88
2024/02/18 03:51:34;;;;;;;;;;;;;;;;;;4954389;28;88976;-84
2024/02/18 03:53:59;;;;;;;;;;;;;;;;;;4951358;28;89196;-84
2024/02/18 03:56:25;;;;;;;;;;;;;;;;;;4950198;28;88961;-82
2024/02/18 03:58:50;;;;;;;;;;;;;;;;;;4950152;28;89490;-84
2024/02/18 04:01:15;;;;;;;;;;;;;;;;;;4950652;28;89224;-84
2024/02/18 04:03:41;;;;;;;;;;;;;;;;;;4949038;28;91089;-84
2024/02/18 04:06:08;;;;;;;;;;;;;;;;;;4949161;28;92187;-90
2024/02/18 04:08:33;;;;;;;;;;;;;;;;;;4950601;28;89349;-88
2024/02/18 04:10:58;;;;;;;;;;;;;;;;;;4953375;28;88902;-88
2024/02/18 04:13:24;;;;;;;;;;;;;;;;;;4949541;28;91768;-84
2024/02/18 04:15:49;;;;;;;;;;;;;;;;;;4950775;28;89303;-85
2024/02/18 04:18:14;;;;;;;;;;;;;;;;;;4949186;28;91516;-83
2024/02/18 04:20:39;;;;;;;;;;;;;;;;;;4950441;28;89838;-85
2024/02/18 04:23:04;;;;;;;;;;;;;;;;;;4950891;28;88883;-84
2024/02/18 04:25:30;;;;;;;;;;;;;;;;;;4950274;28;89712;-87
2024/02/18 04:27:55;;;;;;;;;;;;;;;;;;4948583;28;91847;-88
2024/02/18 04:30:20;;;;;;;;;;;;;;;;;;4950282;28;89186;-84
2024/02/18 04:32:45;;;;;;;;;;;;;;;;;;4955519;28;90076;-85
2024/02/18 04:35:10;;;;;;;;;;;;;;;;;;4954436;28;90114;-88
2024/02/18 04:37:36;;;;;;;;;;;;;;;;;;4953936;28;89366;-87
2024/02/18 04:40:02;;;;;;;;;;;;;;;;;;4955297;28;89085;-86
2024/02/18 04:42:28;;;;;;;;;;;;;;;;;;4962583;28;90537;-85
2024/02/18 04:44:53;;;;;;;;;;;;;;;;;;4960572;28;89549;-87
2024/02/18 04:47:18;;;;;;;;;;;;;;;;;;4955034;28;89539;-84
2024/02/18 04:49:44;;;;;;;;;;;;;;;;;;4952446;28;89542;-84
2024/02/18 04:52:09;;;;;;;;;;;;;;;;;;4955126;28;91012;-88
2024/02/18 04:54:34;;;;;;;;;;;;;;;;;;4956609;28;89312;-87
2024/02/18 04:57:02;;;;;;;;;;;;;;;;;;4953070;28;90669;-88
2024/02/18 04:59:28;;;;;;;;;;;;;;;;;;4953999;28;89056;-87
2024/02/18 05:01:53;;;;;;;;;;;;;;;;;;4952940;28;89308;-84
2024/02/18 05:04:18;;;;;;;;;;;;;;;;;;4953578;28;89563;-86
2024/02/18 05:06:47;;;;;;;;;;;;;;;;;;4952615;28;89294;-84
2024/02/18 05:09:12;;;;;;;;;;;;;;;;;;4953709;28;89043;-85
2024/02/18 05:11:37;;;;;;;;;;;;;;;;;;4953275;28;89583;-83
2024/02/18 05:14:03;;;;;;;;;;;;;;;;;;4953340;28;89328;-86
2024/02/18 05:16:28;;;;;;;;;;;;;;;;;;4956274;28;89018;-84
2024/02/18 05:18:54;;;;;;;;;;;;;;;;;;4950719;28;92087;-86
2024/02/18 05:21:19;;;;;;;;;;;;;;;;;;4952716;28;89085;-84
2024/02/18 05:23:44;;;;;;;;;;;;;;;;;;4953472;28;89538;-83
2024/02/18 05:26:10;;;;;;;;;;;;;;;;;;4952310;28;89547;-88
2024/02/18 05:28:35;;;;;;;;;;;;;;;;;;4952028;28;89119;-85
2024/02/18 05:31:00;;;;;;;;;;;;;;;;;;4968148;28;92262;-80
2024/02/18 05:33:26;;;;;;;;;;;;;;;;;;4953325;28;89186;-83
2024/02/18 05:35:51;;;;;;;;;;;;;;;;;;4952747;28;89371;-88
2024/02/18 05:38:16;;;;;;;;;;;;;;;;;;4955396;28;89582;-85
2024/02/18 05:40:41;;;;;;;;;;;;;;;;;;4952765;28;88949;-84
2024/02/18 05:43:07;;;;;;;;;;;;;;;;;;4951230;28;91800;-83
2024/02/18 05:45:32;;;;;;;;;;;;;;;;;;4951861;28;89039;-82
2024/02/18 05:47:57;;;;;;;;;;;;;;;;;;4952572;28;89066;-85
2024/02/18 05:50:22;;;;;;;;;;;;;;;;;;4952428;28;89474;-85
2024/02/18 05:52:48;;;;;;;;;;;;;;;;;;4951448;28;90635;-87
2024/02/18 05:55:13;;;;;;;;;;;;;;;;;;4953399;28;88969;-83
2024/02/18 05:57:38;;;;;;;;;;;;;;;;;;4952458;28;89008;-83
2024/02/18 06:00:04;;;;;;;;;;;;;;;;;;4953505;28;91735;-80
2024/02/18 06:02:29;;;;;;;;;;;;;;;;;;4957498;28;93606;-85
2024/02/18 06:04:54;;;;;;;;;;;;;;;;;;4951146;28;92359;-84
2024/02/18 06:07:19;;;;;;;;;;;;;;;;;;4952002;28;89311;-84
2024/02/18 06:09:45;;;;;;;;;;;;;;;;;;4947548;28;89734;-84
2024/02/18 06:12:11;;;;;;;;;;;;;;;;;;4946190;28;91071;-85
2024/02/18 06:14:36;;;;;;;;;;;;;;;;;;4940350;28;89108;-85
2024/02/18 06:17:01;;;;;;;;;;;;;;;;;;4945428;28;89508;-85
2024/02/18 06:19:26;;;;;;;;;;;;;;;;;;4950650;28;89337;-85
2024/02/18 06:21:52;;;;;;;;;;;;;;;;;;4945597;28;89736;-84
2024/02/18 06:24:17;;;;;;;;;;;;;;;;;;4937397;28;92011;-84
2024/02/18 06:26:42;;;;;;;;;;;;;;;;;;4939498;28;89492;-83
2024/02/18 06:29:07;;;;;;;;;;;;;;;;;;4939718;28;92706;-83
2024/02/18 06:31:33;;;;;;;;;;;;;;;;;;4943450;28;89293;-82
2024/02/18 06:33:58;;;;;;;;;;;;;;;;;;4939074;28;90524;-83
2024/02/18 06:36:25;;;;;;;;;;;;;;;;;;4942447;28;89726;-85
2024/02/18 06:38:50;;;;;;;;;;;;;;;;;;4932145;28;91590;-87
2024/02/18 06:41:16;;;;;;;;;;;;;;;;;;4941716;28;90446;-87
2024/02/18 06:43:41;;;;;;;;;;;;;;;;;;4942063;28;90128;-86
2024/02/18 06:46:06;;;;;;;;;;;;;;;;;;4932163;28;89327;-80
2024/02/18 06:48:32;;;;;;;;;;;;;;;;;;4940794;28;89592;-84
2024/02/18 06:50:57;;;;;;;;;;;;;;;;;;4956604;28;92226;-82
2024/02/18 06:53:22;;;;;;;;;;;;;;;;;;4946425;28;89540;-86
2024/02/18 06:55:48;;;;;;;;;;;;;;;;;;4952761;28;89542;-85
2024/02/18 06:58:14;;;;;;;;;;;;;;;;;;4950082;28;90873;-88
2024/02/18 07:00:40;;;;;;;;;;;;;;;;;;4941499;28;89224;-86
2024/02/18 07:03:06;;;;;;;;;;;;;;;;;;4953453;28;89557;-84
2024/02/18 07:05:31;;;;;;;;;;;;;;;;;;4940283;28;89228;-85
2024/02/18 07:07:57;;;;;;;;;;;;;;;;;;4940458;28;89532;-82
2024/02/18 07:10:22;;;;;;;;;;;;;;;;;;4937526;28;90676;-84
2024/02/18 07:12:47;;;;;;;;;;;;;;;;;;4944616;28;89261;-83
2024/02/18 07:15:12;;;;;;;;;;;;;;;;;;4942604;28;90007;-84
2024/02/18 07:17:38;;;;;;;;;;;;;;;;;;4936807;28;92191;-85
2024/02/18 07:20:03;;;;;;;;;;;;;;;;;;4942558;28;89052;-88
2024/02/18 07:22:28;;;;;;;;;;;;;;;;;;4937145;28;92419;-85
2024/02/18 07:24:53;;;;;;;;;;;;;;;;;;4939991;28;91449;-85
2024/02/18 07:27:18;;;;;;;;;;;;;;;;;;4934670;28;92259;-81
2024/02/18 07:29:44;;;;;;;;;;;;;;;;;;4935114;28;91775;-83
2024/02/18 07:32:09;;;;;;;;;;;;;;;;;;4942013;28;89046;-83
2024/02/18 07:34:34;;;;;;;;;;;;;;;;;;4938150;28;91555;-85
2024/02/18 07:36:59;;;;;;;;;;;;;;;;;;4941886;28;89198;-83
2024/02/18 07:39:26;;;;;;;;;;;;;;;;;;4939633;28;89046;-85
2024/02/18 07:41:52;;;;;;;;;;;;;;;;;;4941688;28;92079;-86
2024/02/18 07:44:18;;;;;;;;;;;;;;;;;;4940694;28;89730;-86
2024/02/18 07:46:43;;;;;;;;;;;;;;;;;;4949788;28;89287;-82
2024/02/18 07:49:10;;;;;;;;;;;;;;;;;;4946677;28;89372;-79
2024/02/18 07:51:36;;;;;;;;;;;;;;;;;;4940675;28;88977;-83
2024/02/18 07:54:01;;;;;;;;;;;;;;;;;;4947688;28;89622;-82
2024/02/18 07:56:26;;;;;;;;;;;;;;;;;;4940636;28;92793;-89
2024/02/18 07:58:51;;;;;;;;;;;;;;;;;;4942364;28;89270;-86
2024/02/18 08:01:17;;;;;;;;;;;;;;;;;;4943163;28;89657;-88
2024/02/18 08:03:43;;;;;;;;;;;;;;;;;;4943676;28;91873;-86
2024/02/18 08:06:08;;;;;;;;;;;;;;;;;;4947810;28;89503;-88
2024/02/18 08:08:33;;;;;;;;;;;;;;;;;;4946142;28;90582;-84
2024/02/18 08:10:59;;;;;;;;;;;;;;;;;;4943560;28;90441;-88
2024/02/18 08:13:24;;;;;;;;;;;;;;;;;;4940711;28;91509;-89
2024/02/18 08:15:50;;;;;;;;;;;;;;;;;;4942108;28;91778;-88
2024/02/18 08:18:15;;;;;;;;;;;;;;;;;;4946656;28;89746;-88
2024/02/18 08:20:40;;;;;;;;;;;;;;;;;;4945272;28;89575;-87
2024/02/18 08:23:06;;;;;;;;;;;;;;;;;;4944290;28;92567;-86
2024/02/18 08:25:32;;;;;;;;;;;;;;;;;;4940514;28;89524;-89
2024/02/18 08:27:58;;;;;;;;;;;;;;;;;;4950005;28;90043;-88
2024/02/18 08:30:24;;;;;;;;;;;;;;;;;;4943156;28;89021;-88
2024/02/18 08:32:51;;;;;;;;;;;;;;;;;;4943334;28;88994;-87
2024/02/18 08:35:16;;;;;;;;;;;;;;;;;;4931285;28;92022;-88
2024/02/18 08:37:41;;;;;;;;;;;;;;;;;;4939939;28;89286;-89
2024/02/18 08:40:09;;;;;;;;;;;;;;;;;;4945085;28;92285;-87
2024/02/18 08:42:34;;;;;;;;;;;;;;;;;;4943043;28;89215;-86
2024/02/18 08:44:59;;;;;;;;;;;;;;;;;;4938545;28;89377;-89
2024/02/18 08:47:25;;;;;;;;;;;;;;;;;;4930355;28;92468;-89
2024/02/18 08:49:50;;;;;;;;;;;;;;;;;;4946678;28;90597;-88
2024/02/18 08:52:15;;;;;;;;;;;;;;;;;;4944380;28;90159;-88
2024/02/18 08:54:43;;;;;;;;;;;;;;;;;;4945222;28;89383;-89
2024/02/18 08:57:08;;;;;;;;;;;;;;;;;;4946271;28;90328;-89
2024/02/18 08:59:34;;;;;;;;;;;;;;;;;;4950251;28;92305;-86
2024/02/18 09:02:00;;;;;;;;;;;;;;;;;;4953803;28;90559;-89
2024/02/18 09:04:25;;;;;;;;;;;;;;;;;;4948325;28;90736;-88
2024/02/18 09:06:50;;;;;;;;;;;;;;;;;;4945258;28;93004;-86
2024/02/18 09:09:16;;;;;;;;;;;;;;;;;;4947420;28;89424;-86
2024/02/18 09:11:43;;;;;;;;;;;;;;;;;;4944532;28;89145;-85
2024/02/18 09:14:09;;;;;;;;;;;;;;;;;;4936523;28;89341;-85
2024/02/18 09:16:35;;;;;;;;;;;;;;;;;;4943416;28;89297;-86
2024/02/18 09:19:00;;;;;;;;;;;;;;;;;;4944842;28;92642;-81
2024/02/18 09:21:25;;;;;;;;;;;;;;;;;;4950140;28;89282;-84
2024/02/18 09:23:51;;;;;;;;;;;;;;;;;;4942532;28;89352;-88
2024/02/18 09:26:16;;;;;;;;;;;;;;;;;;4941486;28;89160;-84
2024/02/18 09:28:41;;;;;;;;;;;;;;;;;;4949386;28;89229;-84
2024/02/18 09:31:08;;;;;;;;;;;;;;;;;;4945152;28;89865;-90
2024/02/18 09:33:33;;;;;;;;;;;;;;;;;;4942378;28;91477;-88
2024/02/18 09:35:59;;;;;;;;;;;;;;;;;;4949287;28;89120;-84
2024/02/18 09:38:24;;;;;;;;;;;;;;;;;;4944581;28;89555;-88
2024/02/18 09:40:49;;;;;;;;;;;;;;;;;;4941155;28;90695;-88
2024/02/18 09:43:15;;;;;;;;;;;;;;;;;;4942249;28;89198;-87
2024/02/18 09:45:42;;;;;;;;;;;;;;;;;;4943661;28;89620;-84
2024/02/18 09:48:11;;;;;;;;;;;;;;;;;;4947368;28;91382;-88
2024/02/18 09:50:37;;;;;;;;;;;;;;;;;;4947336;28;89054;-87
2024/02/18 09:53:04;;;;;;;;;;;;;;;;;;4941620;28;92592;-87
2024/02/18 09:55:29;;;;;;;;;;;;;;;;;;4946600;28;91432;-87
2024/02/18 09:57:54;;;;;;;;;;;;;;;;;;4948898;28;89453;-88
2024/02/18 10:00:20;;;;;;;;;;;;;;;;;;4938456;28;91835;-86
2024/02/18 10:02:45;;;;;;;;;;;;;;;;;;4943193;28;91146;-85
2024/02/18 10:05:11;;;;;;;;;;;;;;;;;;4944005;28;92399;-86
2024/02/18 10:07:36;;;;;;;;;;;;;;;;;;4945119;28;90470;-85
2024/02/18 10:10:03;;;;;;;;;;;;;;;;;;4943813;28;89125;-86
2024/02/18 10:12:29;;;;;;;;;;;;;;;;;;4948904;28;90061;-84
2024/02/18 10:14:56;;;;;;;;;;;;;;;;;;4951450;28;91743;-87
2024/02/18 10:17:21;;;;;;;;;;;;;;;;;;4937696;28;89790;-84
2024/02/18 10:19:47;;;;;;;;;;;;;;;;;;4940334;28;92312;-86
2024/02/18 10:22:13;;;;;;;;;;;;;;;;;;4947217;28;89227;-84
2024/02/18 10:24:38;;;;;;;;;;;;;;;;;;4938824;28;92208;-84
2024/02/18 10:27:04;;;;;;;;;;;;;;;;;;4941190;28;91294;-84
2024/02/18 10:29:29;;;;;;;;;;;;;;;;;;4946603;28;89523;-83
2024/02/18 10:31:54;;;;;;;;;;;;;;;;;;4937979;28;89544;-86
2024/02/18 10:34:20;;;;;;;;;;;;;;;;;;4945021;28;90280;-86
2024/02/18 10:36:47;;;;;;;;;;;;;;;;;;4944395;28;90336;-86
2024/02/18 10:39:15;;;;;;;;;;;;;;;;;;4942654;28;89717;-86
2024/02/18 10:41:45;;;;;;;;;;;;;;;;;;4943430;28;89036;-87
2024/02/18 10:44:16;;;;;;;;;;;;;;;;;;4942262;28;89225;-85
2024/02/18 10:46:41;;;;;;;;;;;;;;;;;;4946202;28;89189;-87
2024/02/18 10:49:14;;;;;;;;;;;;;;;;;;4938966;28;89950;-87
2024/02/18 10:51:41;;;;;;;;;;;;;;;;;;4949090;28;89430;-84
2024/02/18 10:54:15;;;;;;;;;;;;;;;;;;4943010;28;90165;-86
2024/02/18 10:56:41;;;;;;;;;;;;;;;;;;4949960;28;90326;-85
2024/02/18 10:59:25;;;;;;;;;;;;;;;;;;4958501;28;89474;-84
2024/02/18 11:01:55;;;;;;;;;;;;;;;;;;4948703;28;89054;-85
2024/02/18 11:04:21;;;;;;;;;;;;;;;;;;4948902;28;89165;-85
2024/02/18 11:06:47;;;;;;;;;;;;;;;;;;4947653;28;89258;-87
2024/02/18 11:09:14;;;;;;;;;;;;;;;;;;4952527;28;89480;-86
2024/02/18 11:11:41;;;;;;;;;;;;;;;;;;4940516;28;91045;-84
2024/02/18 11:14:09;;;;;;;;;;;;;;;;;;4940758;28;89909;-84
2024/02/18 11:16:34;;;;;;;;;;;;;;;;;;4934576;28;89169;-85
2024/02/18 11:19:00;;;;;;;;;;;;;;;;;;4946329;28;93423;-85
2024/02/18 11:21:26;;;;;;;;;;;;;;;;;;4944277;28;89636;-85
2024/02/18 11:23:52;;;;;;;;;;;;;;;;;;4942842;28;92320;-84
2024/02/18 11:26:17;;;;;;;;;;;;;;;;;;4940395;28;89555;-85
2024/02/18 11:28:42;;;;;;;;;;;;;;;;;;4946205;28;90127;-85
2024/02/18 11:31:08;;;;;;;;;;;;;;;;;;4943199;28;92740;-83
2024/02/18 11:33:33;;;;;;;;;;;;;;;;;;4939197;28;89258;-85
2024/02/18 11:36:12;;;;;;;;;;;;;;;;;;4946778;28;89905;-84
2024/02/18 11:38:41;;;;;;;;;;;;;;;;;;4949083;28;92023;-83
2024/02/18 11:41:14;;;;;;;;;;;;;;;;;;4948701;28;92060;-84
2024/02/18 11:43:40;;;;;;;;;;;;;;;;;;4942646;28;90406;-84
2024/02/18 11:46:15;;;;;;;;;;;;;;;;;;4941559;28;89927;-82
2024/02/18 11:48:40;;;;;;;;;;;;;;;;;;4938525;28;91115;-85
2024/02/18 11:51:05;;;;;;;;;;;;;;;;;;4943830;28;89506;-84
2024/02/18 11:53:30;;;;;;;;;;;;;;;;;;4940034;28;89155;-84
2024/02/18 11:55:56;;;;;;;;;;;;;;;;;;4948890;28;90443;-85
2024/02/18 11:58:21;;;;;;;;;;;;;;;;;;4947981;28;92567;-84
2024/02/18 12:00:46;;;;;;;;;;;;;;;;;;4945796;28;91992;-86
2024/02/18 12:03:12;;;;;;;;;;;;;;;;;;4944232;28;89395;-85
2024/02/18 12:05:38;;;;;;;;;;;;;;;;;;4949438;28;89666;-86
2024/02/18 12:08:03;;;;;;;;;;;;;;;;;;4938491;28;89072;-87
2024/02/18 12:10:30;;;;;;;;;;;;;;;;;;4944213;28;91976;-87
2024/02/18 12:12:55;;;;;;;;;;;;;;;;;;4945952;28;91916;-86
2024/02/18 12:15:25;;;;;;;;;;;;;;;;;;4947577;28;89174;-85
2024/02/18 12:17:52;;;;;;;;;;;;;;;;;;4943235;28;90770;-87
2024/02/18 12:20:19;;;;;;;;;;;;;;;;;;4945928;28;90612;-86
2024/02/18 12:22:46;;;;;;;;;;;;;;;;;;4947999;28;90669;-83
2024/02/18 12:25:14;;;;;;;;;;;;;;;;;;4947673;28;90037;-86
2024/02/18 12:27:39;;;;;;;;;;;;;;;;;;4939214;28;89053;-88
2024/02/18 12:30:05;;;;;;;;;;;;;;;;;;4940812;28;89187;-88
2024/02/18 12:32:30;;;;;;;;;;;;;;;;;;4941019;28;90496;-87
2024/02/18 12:34:55;;;;;;;;;;;;;;;;;;4938609;28;90469;-87
2024/02/18 12:37:21;;;;;;;;;;;;;;;;;;4941143;28;89449;-87
2024/02/18 12:39:47;;;;;;;;;;;;;;;;;;4942909;28;90396;-85
2024/02/18 12:42:12;;;;;;;;;;;;;;;;;;4928857;28;89836;-87
2024/02/18 12:44:38;;;;;;;;;;;;;;;;;;4943203;28;89487;-85
2024/02/18 12:47:03;;;;;;;;;;;;;;;;;;4943054;28;89396;-87
2024/02/18 12:49:29;;;;;;;;;;;;;;;;;;4939304;28;92640;-86
2024/02/18 12:52:09;;;;;;;;;;;;;;;;;;4943695;28;92428;-88
2024/02/18 12:54:35;;;;;;;;;;;;;;;;;;4940692;28;91004;-87
2024/02/18 12:57:01;;;;;;;;;;;;;;;;;;4948307;28;89656;-88
2024/02/18 12:59:26;;;;;;;;;;;;;;;;;;4947361;28;92070;-88
2024/02/18 13:01:52;;;;;;;;;;;;;;;;;;4946923;28;89787;-87
2024/02/18 13:04:21;;;;;;;;;;;;;;;;;;4946055;28;89073;-89
2024/02/18 13:06:48;;;;;;;;;;;;;;;;;;4949367;28;92249;-87
2024/02/18 13:09:23;;;;;;;;;;;;;;;;;;4952801;28;89232;-88
2024/02/18 13:11:48;;;;;;;;;;;;;;;;;;4949395;28;90754;-84
2024/02/18 13:14:13;;;;;;;;;;;;;;;;;;4950533;28;91182;-88
2024/02/18 13:16:39;;;;;;;;;;;;;;;;;;4961280;28;90853;-88
2024/02/18 13:19:04;;;;;;;;;;;;;;;;;;4955085;28;90883;-88
2024/02/18 13:21:29;;;;;;;;;;;;;;;;;;4950231;28;90202;-88
2024/02/18 13:23:55;;;;;;;;;;;;;;;;;;4952182;28;89380;-88
2024/02/18 13:26:21;;;;;;;;;;;;;;;;;;4953512;28;89185;-88
2024/02/18 13:28:47;;;;;;;;;;;;;;;;;;4950783;28;90435;-87
2024/02/18 13:31:14;;;;;;;;;;;;;;;;;;4956863;28;91144;-88
2024/02/18 13:33:40;;;;;;;;;;;;;;;;;;4952426;28;89246;-88
2024/02/18 13:36:05;;;;;;;;;;;;;;;;;;4950877;28;92309;-87
2024/02/18 13:38:30;;;;;;;;;;;;;;;;;;4951166;28;89134;-88
2024/02/18 13:40:55;;;;;;;;;;;;;;;;;;4968864;28;89206;-87
2024/02/18 13:43:21;;;;;;;;;;;;;;;;;;4970911;28;89501;-86
2024/02/18 13:45:46;;;;;;;;;;;;;;;;;;4953057;28;89472;-87
2024/02/18 13:48:11;;;;;;;;;;;;;;;;;;4950571;28;89029;-86
2024/02/18 13:50:36;;;;;;;;;;;;;;;;;;4950841;28;90100;-85
2024/02/18 13:53:03;;;;;;;;;;;;;;;;;;4953847;28;89186;-88
2024/02/18 13:55:28;;;;;;;;;;;;;;;;;;4951043;28;89576;-86
2024/02/18 13:57:54;;;;;;;;;;;;;;;;;;4951064;28;89747;-87
2024/02/18 14:00:20;;;;;;;;;;;;;;;;;;4957132;28;89318;-87
2024/02/18 14:02:45;;;;;;;;;;;;;;;;;;4949620;28;92804;-87
2024/02/18 14:05:10;;;;;;;;;;;;;;;;;;4950839;28;89165;-88
2024/02/18 14:07:38;;;;;;;;;;;;;;;;;;4951532;28;89127;-86
2024/02/18 14:10:03;;;;;;;;;;;;;;;;;;4949548;28;92509;-87
2024/02/18 14:12:29;;;;;;;;;;;;;;;;;;4951658;28;89099;-88
2024/02/18 14:14:54;;;;;;;;;;;;;;;;;;4954029;28;89503;-87
2024/02/18 14:17:19;;;;;;;;;;;;;;;;;;4966320;28;90485;-88
2024/02/18 14:19:44;;;;;;;;;;;;;;;;;;4951438;28;89023;-87
2024/02/18 14:22:10;;;;;;;;;;;;;;;;;;4951370;28;89526;-87
2024/02/18 14:24:35;;;;;;;;;;;;;;;;;;4951506;28;89450;-87
2024/02/18 14:27:00;;;;;;;;;;;;;;;;;;4950806;28;89056;-88
2024/02/18 14:29:27;;;;;;;;;;;;;;;;;;4949992;28;92070;-88
2024/02/18 14:31:52;;;;;;;;;;;;;;;;;;4949667;28;92027;-87
2024/02/18 14:34:17;;;;;;;;;;;;;;;;;;4958906;28;89565;-88
2024/02/18 14:36:43;;;;;;;;;;;;;;;;;;4951994;28;89044;-87
2024/02/18 14:39:08;;;;;;;;;;;;;;;;;;4951426;28;89072;-88
2024/02/18 14:41:33;;;;;;;;;;;;;;;;;;4951207;28;90147;-87
2024/02/18 14:43:58;;;;;;;;;;;;;;;;;;4955217;28;89309;-88
2024/02/18 14:46:24;;;;;;;;;;;;;;;;;;4951105;28;89479;-88
2024/02/18 14:48:49;;;;;;;;;;;;;;;;;;4950835;28;89543;-89
2024/02/18 14:51:14;;;;;;;;;;;;;;;;;;4950687;28;89250;-87
2024/02/18 14:53:44;;;;;;;;;;;;;;;;;;4950384;28;89046;-86
2024/02/18 14:56:09;;;;;;;;;;;;;;;;;;4951807;28;92544;-84
2024/02/18 14:58:35;;;;;;;;;;;;;;;;;;4949175;28;90371;-85
2024/02/18 15:01:00;;;;;;;;;;;;;;;;;;4945279;28;90505;-85
2024/02/18 15:03:25;;;;;;;;;;;;;;;;;;4945229;28;92707;-84
2024/02/18 15:05:50;;;;;;;;;;;;;;;;;;4952956;28;90306;-84
2024/02/18 15:08:15;;;;;;;;;;;;;;;;;;4948157;28;92448;-84
2024/02/18 15:10:41;;;;;;;;;;;;;;;;;;4950071;28;89206;-83
2024/02/18 15:13:09;;;;;;;;;;;;;;;;;;4950594;28;89456;-84
2024/02/18 15:15:35;;;;;;;;;;;;;;;;;;4948151;28;92529;-84
2024/02/18 15:18:00;;;;;;;;;;;;;;;;;;4953207;28;89465;-85
2024/02/18 15:20:26;;;;;;;;;;;;;;;;;;4950816;28;89517;-84
2024/02/18 15:22:51;;;;;;;;;;;;;;;;;;4949864;28;92003;-85
2024/02/18 15:25:16;;;;;;;;;;;;;;;;;;4962074;28;88984;-83
2024/02/18 15:27:41;;;;;;;;;;;;;;;;;;4966590;28;88835;-85
2024/02/18 15:30:07;;;;;;;;;;;;;;;;;;4959205;28;89212;-84
2024/02/18 15:32:32;;;;;;;;;;;;;;;;;;4955286;28;90119;-84
2024/02/18 15:34:57;;;;;;;;;;;;;;;;;;4951385;28;88886;-86
2024/02/18 15:37:23;;;;;;;;;;;;;;;;;;4951231;28;89395;-87
2024/02/18 15:39:48;;;;;;;;;;;;;;;;;;4953625;28;89022;-85
2024/02/18 15:42:13;;;;;;;;;;;;;;;;;;4949961;28;89610;-86
2024/02/18 15:44:38;;;;;;;;;;;;;;;;;;4955115;28;89301;-86
2024/02/18 15:47:06;;;;;;;;;;;;;;;;;;4950098;28;89645;-87
2024/02/18 15:49:31;;;;;;;;;;;;;;;;;;4947386;28;91944;-85
2024/02/18 15:51:58;;;;;;;;;;;;;;;;;;4947926;28;89896;-87
2024/02/18 15:54:24;;;;;;;;;;;;;;;;;;4947566;28;90658;-87
2024/02/18 15:56:49;;;;;;;;;;;;;;;;;;4949271;28;89266;-87
2024/02/18 15:59:14;;;;;;;;;;;;;;;;;;4950543;28;88955;-86
2024/02/18 16:01:39;;;;;;;;;;;;;;;;;;4951363;28;92703;-88
2024/02/18 16:04:05;;;;;;;;;;;;;;;;;;4948425;28;91368;-87
2024/02/18 16:06:35;;;;;;;;;;;;;;;;;;4950260;28;89099;-87
2024/02/18 16:09:00;;;;;;;;;;;;;;;;;;4950079;28;89211;-87
2024/02/18 16:11:26;;;;;;;;;;;;;;;;;;4950369;28;89036;-85
2024/02/18 16:13:51;;;;;;;;;;;;;;;;;;4949713;28;89473;-83
2024/02/18 16:16:18;;;;;;;;;;;;;;;;;;4954232;28;91833;-88
2024/02/18 16:18:43;;;;;;;;;;;;;;;;;;4949777;28;89634;-85
2024/02/18 16:21:09;;;;;;;;;;;;;;;;;;4950062;28;89448;-87
2024/02/18 16:23:34;;;;;;;;;;;;;;;;;;4952246;28;89415;-85
2024/02/18 16:25:59;;;;;;;;;;;;;;;;;;4949194;28;89561;-86
2024/02/18 16:28:24;;;;;;;;;;;;;;;;;;4950637;28;89240;-87
2024/02/18 16:30:50;;;;;;;;;;;;;;;;;;4952215;28;89240;-85
2024/02/18 16:33:15;;;;;;;;;;;;;;;;;;4947510;28;92649;-85
2024/02/18 16:35:40;;;;;;;;;;;;;;;;;;4950273;28;89553;-86